Impacts TAF Board INFO
FOR SITUATIONAL AWARENESS. NOT TO BE USED FOR FLIGHT PLANNING PURPOSES.
IDs:

KCLT - Charlotte/Douglas In, NC, US

Issued at 0524 UTC 24 Nov 2017
Updated at 0724 UTC 24 Nov 2017
Potential Impact None Slight Moderate High
Time<<24/20Z 24/21Z 24/22Z 24/23Z 25/00Z 25/01Z 25/02Z 25/03Z 25/04Z 25/05Z 25/06Z 25/07Z 25/08Z>>
Type PRVL PRVL PRVL PRVL PRVL PRVL PRVL PRVL PRVL PRVL
VIS >6 >6 >6 >6 >6 >6 >6 >6 >6 >6
CIG -- -- -- -- -- -- -- -- -- --
Cover FEW FEW FEW FEW FEW FEW FEW FEW FEW FEW
FltCat VFR VFR VFR VFR VFR VFR VFR VFR VFR VFR
WX -- -- -- -- -- -- -- -- -- --
WDir 180 180 180 180 180 180 180 180 180 180
WSpd 4 4 4 4 4 4 4 4 4 4
WGst -- -- -- -- -- -- -- -- -- --

Raw TAF
KCLT 240524Z 2406/2506 00000KT P6SM SKC
  FM241500 18004KT P6SM FEW250


METAR Board
Radar Display
Forecast Discussion

FOR SITUATIONAL AWARENESS. NOT TO BE USED FOR FLIGHT PLANNING PURPOSES.